KSAD Airport (Safford Rgnl) Information

FAA: SAD - ICAO: KSAD

KSAD Airport Location

State Arizona
County Graham
City Safford
KSAD Airport is 3 miles east of Safford, AZ.
Latitude 32-51-12.0000N
Longitude 109-38-06.3000W
Elevation 3,178ft

KSAD Airport METARs

METAR KSAD 301751Z AUTO 36004KT 10SM CLR 12/M01 A3017 RMK AO2 SLP202 T01171011 10117 20039 50003
Altimeter 30.17"
Temperature 11.7°C (53.1°F)
Wind 360° at 4KT
Clouds Skies are clear.
Visibility 10.0mi
Time observed: 2021-11-30T17:51:00Z

KSAD Airport Details

Status Operational
Activation July 1942
Ownership Public
Usage Public
Chart PHOENIX
ATC on-site No
Beacon schedule sunset-sunrise
Beacon color clear green

KSAD Airport Contacts

Owner CITY OF SAFFORD
Owner address 717 MAIN ST, SAFFORD, AZ 85546
Owner phone 928-432-4000
Manager U.S. FOREST SERV, TONTO NATL FOREST
Manager address TONTO BASIN DISTRICT, 28079 N. AZ HWY 188, ROOSEVELT, AZ 85545
Manager phone (602) 225-5395

KSAD Airport (Safford Rgnl) Radio Frequencies

KSAD (Airport) Radio Frequencies

UNICOM 122.8
Common traffic advisory frequency (CTAF) 122.8